createdAt,value
2023-06-02T04:02:32.169Z,3.37
2023-06-02T04:04:58.817Z,3.28
2023-06-02T04:07:25.526Z,3.08
2023-06-02T04:09:52.250Z,3.05
2023-06-02T04:12:18.820Z,3.08
2023-06-02T04:14:45.366Z,3.07
2023-06-02T04:17:12.011Z,3.33
2023-06-02T04:19:38.615Z,2.72
2023-06-02T04:22:06.667Z,2.72
2023-06-02T04:24:33.391Z,3.03
2023-06-02T04:27:00.433Z,3.70
2023-06-02T04:29:29.679Z,2.72
2023-06-02T04:31:57.936Z,2.55
2023-06-02T04:34:24.954Z,2.55
2023-06-02T04:36:51.573Z,2.90
2023-06-02T04:39:18.754Z,2.20
2023-06-02T04:41:45.357Z,2.90
2023-06-02T04:44:12.626Z,2.70
2023-06-02T04:46:39.294Z,2.22
2023-06-02T04:49:10.054Z,2.65
2023-06-02T04:51:38.535Z,2.40
2023-06-02T04:54:05.821Z,2.85
2023-06-02T04:56:33.141Z,1.95
2023-06-02T04:58:59.776Z,2.20
2023-06-02T05:01:26.428Z,2.22
2023-06-02T05:03:54.539Z,2.20
2023-06-02T05:06:21.459Z,2.50
2023-06-02T05:08:48.079Z,2.30
2023-06-02T05:11:14.628Z,2.47
2023-06-02T05:13:41.204Z,2.40
2023-06-02T05:16:07.988Z,2.70
2023-06-02T05:18:34.921Z,2.33
2023-06-02T05:21:01.520Z,2.30
2023-06-02T05:23:28.107Z,3.00
2023-06-02T05:25:54.700Z,2.60
2023-06-02T05:28:21.255Z,2.53
2023-06-02T05:30:47.847Z,3.15
2023-06-02T05:33:14.526Z,3.10
2023-06-02T05:35:41.168Z,2.63
2023-06-02T05:38:07.755Z,2.70
2023-06-02T05:40:34.367Z,3.97
2023-06-02T05:43:00.944Z,2.92
2023-06-02T05:45:27.568Z,2.78
2023-06-02T05:47:54.214Z,2.70
2023-06-02T05:50:20.833Z,3.65
2023-06-02T05:52:47.410Z,2.83
2023-06-02T05:55:14.063Z,2.67
2023-06-02T05:57:40.688Z,2.47
2023-06-02T06:00:08.384Z,3.00
2023-06-02T06:02:35.124Z,2.90
2023-06-02T06:05:01.846Z,3.10
2023-06-02T06:07:28.465Z,2.80
2023-06-02T06:09:55.033Z,2.70
2023-06-02T06:12:21.618Z,2.60
2023-06-02T06:14:48.243Z,2.53
2023-06-02T06:17:14.797Z,2.43
2023-06-02T06:19:41.476Z,2.80
2023-06-02T06:22:08.130Z,2.53
2023-06-02T06:24:34.991Z,2.50
2023-06-02T06:27:01.682Z,2.20
2023-06-02T06:29:28.252Z,2.93
2023-06-02T06:31:54.848Z,2.38
2023-06-02T06:34:21.462Z,2.15
2023-06-02T06:36:48.854Z,2.65
2023-06-02T06:39:15.488Z,2.08
2023-06-02T06:41:43.538Z,2.17
2023-06-02T06:44:10.256Z,2.17
2023-06-02T06:46:37.091Z,2.30
2023-06-02T06:49:03.736Z,2.63
2023-06-02T06:51:30.387Z,2.33
2023-06-02T06:53:56.933Z,2.30
2023-06-02T06:56:23.517Z,2.53
2023-06-02T06:58:50.109Z,2.33
2023-06-02T07:01:17.090Z,2.38
2023-06-02T07:03:45.740Z,2.47
2023-06-02T07:06:12.763Z,2.07
2023-06-02T07:08:39.373Z,2.50
2023-06-02T07:11:06.125Z,2.47
2023-06-02T07:13:32.704Z,2.50
2023-06-02T07:15:59.379Z,2.97
2023-06-02T07:18:25.978Z,2.20
2023-06-02T07:20:52.624Z,2.30
2023-06-02T07:23:19.191Z,2.80
2023-06-02T07:25:46.305Z,2.58
2023-06-02T07:28:14.744Z,2.60
2023-06-02T07:31:01.310Z,3.20
2023-06-02T07:33:35.483Z,2.42
2023-06-02T07:36:01.990Z,2.42
2023-06-02T07:38:28.749Z,2.20
2023-06-02T07:40:55.407Z,2.53
2023-06-02T07:43:21.961Z,2.67
2023-06-02T07:45:48.668Z,2.30
2023-06-02T07:48:15.578Z,2.83
2023-06-02T07:50:42.266Z,2.38
2023-06-02T07:53:08.895Z,2.78
2023-06-02T07:55:35.529Z,2.77
2023-06-02T07:58:02.179Z,2.50
2023-06-02T08:00:28.795Z,2.25
2023-06-02T08:02:55.593Z,3.05
2023-06-02T08:05:22.540Z,2.63
2023-06-02T08:07:49.153Z,2.57
2023-06-02T08:10:15.894Z,2.60
2023-06-02T08:12:42.564Z,2.58
2023-06-02T08:15:09.559Z,2.90
2023-06-02T08:17:36.540Z,2.85
2023-06-02T08:20:05.030Z,2.83
2023-06-02T08:22:33.173Z,3.63
2023-06-02T08:24:59.902Z,2.67
2023-06-02T08:27:26.537Z,3.05
2023-06-02T08:29:53.523Z,2.92
2023-06-02T08:32:27.081Z,3.13
2023-06-02T08:34:56.067Z,2.75
2023-06-02T08:37:22.752Z,3.42
2023-06-02T08:39:51.077Z,2.92
2023-06-02T08:42:18.417Z,3.00
2023-06-02T08:44:47.540Z,2.73
2023-06-02T08:47:16.125Z,2.95
2023-06-02T08:49:45.075Z,2.80
2023-06-02T08:52:15.758Z,3.10
2023-06-02T08:54:42.737Z,2.90
2023-06-02T08:57:14.096Z,2.97
2023-06-02T08:59:41.432Z,3.10
2023-06-02T09:02:08.186Z,2.90
2023-06-02T09:04:34.948Z,2.60
2023-06-02T09:07:22.249Z,2.85
2023-06-02T09:09:52.224Z,2.80
2023-06-02T09:12:20.164Z,2.63
2023-06-02T09:14:48.506Z,2.90
2023-06-02T09:17:29.670Z,3.08
2023-06-02T09:19:58.733Z,2.80
2023-06-02T09:22:25.778Z,3.10
2023-06-02T09:24:54.459Z,2.58
2023-06-02T09:27:21.493Z,3.05
2023-06-02T09:29:50.709Z,2.90
2023-06-02T09:32:20.230Z,2.80
2023-06-02T09:34:47.357Z,2.83
2023-06-02T09:37:15.829Z,2.80
2023-06-02T09:39:44.863Z,3.00
2023-06-02T09:42:13.965Z,3.20
2023-06-02T09:44:41.404Z,3.17
2023-06-02T09:47:22.140Z,2.83
2023-06-02T09:49:48.890Z,3.20
2023-06-02T09:52:17.166Z,3.28
2023-06-02T09:54:44.950Z,3.03
2023-06-02T09:57:15.592Z,3.10
2023-06-02T09:59:43.486Z,3.27
2023-06-02T10:02:11.064Z,3.45
2023-06-02T10:04:37.893Z,3.50
2023-06-02T10:07:09.630Z,3.30
2023-06-02T10:09:57.746Z,3.40
2023-06-02T10:12:49.175Z,3.20
2023-06-02T10:15:21.922Z,3.38
2023-06-02T10:18:28.481Z,3.38
2023-06-02T10:21:26.945Z,3.60
2023-06-02T10:24:15.945Z,3.80
2023-06-02T10:26:42.566Z,3.53
2023-06-02T10:29:09.719Z,3.60
2023-06-02T10:31:36.347Z,3.60
2023-06-02T10:34:03.338Z,3.63
2023-06-02T10:37:02.008Z,4.45
2023-06-02T10:39:43.761Z,3.47
2023-06-02T10:42:15.489Z,3.92
2023-06-02T10:44:42.674Z,3.92
2023-06-02T10:47:18.386Z,3.88
2023-06-02T10:49:59.131Z,3.90
2023-06-02T10:52:36.093Z,3.70
2023-06-02T10:55:08.795Z,3.78
2023-06-02T10:58:04.455Z,3.60
2023-06-02T11:00:34.404Z,3.85
2023-06-02T11:03:18.979Z,3.38
2023-06-02T11:05:47.486Z,3.53
2023-06-02T11:08:26.955Z,3.95
2023-06-02T11:10:59.619Z,3.83
2023-06-02T11:13:30.141Z,3.80
2023-06-02T11:16:00.067Z,4.20
2023-06-02T11:18:30.178Z,4.20
2023-06-02T11:20:59.057Z,4.90
2023-06-02T11:23:26.809Z,5.15
2023-06-02T11:26:02.716Z,4.50
2023-06-02T11:28:30.120Z,4.05
2023-06-02T11:31:12.691Z,4.17
2023-06-02T11:33:41.000Z,4.55
2023-06-02T11:36:10.152Z,4.28
2023-06-02T11:38:39.517Z,4.30
2023-06-02T11:41:13.774Z,4.20
2023-06-02T11:43:41.910Z,4.10
2023-06-02T11:46:10.162Z,4.20
2023-06-02T11:48:39.871Z,4.70
2023-06-02T11:51:09.726Z,4.22
2023-06-02T11:53:39.329Z,4.30
2023-06-02T11:56:09.045Z,4.27
2023-06-02T11:58:46.089Z,4.22
2023-06-02T12:01:22.094Z,5.05
2023-06-02T12:03:56.040Z,4.70
2023-06-02T12:06:22.852Z,4.40
2023-06-02T12:08:49.548Z,4.83
2023-06-02T12:11:20.333Z,5.13
2023-06-02T12:14:03.007Z,5.30
2023-06-02T12:16:30.305Z,4.60
2023-06-02T12:19:12.676Z,4.80
2023-06-02T12:21:42.942Z,4.60
2023-06-02T12:24:11.417Z,5.38
2023-06-02T12:26:46.642Z,5.45
2023-06-02T12:29:14.658Z,5.45
2023-06-02T12:31:41.549Z,4.47
2023-06-02T12:34:08.911Z,4.97
2023-06-02T12:36:36.587Z,4.90
2023-06-02T12:39:05.943Z,4.80
2023-06-02T12:41:32.954Z,5.10
2023-06-02T12:43:59.673Z,5.18
2023-06-02T12:46:28.274Z,5.57
2023-06-02T12:48:55.482Z,5.32
2023-06-02T12:51:22.202Z,4.97
2023-06-02T12:53:49.338Z,5.28
2023-06-02T12:56:16.091Z,5.38
2023-06-02T12:58:42.909Z,4.90
2023-06-02T13:01:09.844Z,5.22
2023-06-02T13:03:36.601Z,6.40
2023-06-02T13:06:06.588Z,6.10
2023-06-02T13:08:34.134Z,5.18
2023-06-02T13:11:00.749Z,4.97
2023-06-02T13:13:27.697Z,6.15
2023-06-02T13:16:04.754Z,5.52
2023-06-02T13:18:31.722Z,5.45
2023-06-02T13:20:58.300Z,6.50
2023-06-02T13:23:25.087Z,6.00
2023-06-02T13:25:51.912Z,5.67
2023-06-02T13:28:18.689Z,4.80
2023-06-02T13:30:45.547Z,5.57
2023-06-02T13:33:12.137Z,5.32
2023-06-02T13:35:39.243Z,5.38
2023-06-02T13:38:06.321Z,4.67
2023-06-02T13:40:33.189Z,5.10
2023-06-02T13:42:59.759Z,5.53
2023-06-02T13:45:26.377Z,5.43
2023-06-02T13:47:54.244Z,5.32
2023-06-02T13:50:21.130Z,4.83
2023-06-02T13:52:47.784Z,4.85
2023-06-02T13:55:14.640Z,5.60
2023-06-02T13:57:41.236Z,5.88
2023-06-02T14:00:08.493Z,5.10
2023-06-02T14:02:35.253Z,5.50
2023-06-02T14:05:01.929Z,5.60
2023-06-02T14:07:28.570Z,5.15
2023-06-02T14:09:55.222Z,5.10
2023-06-02T14:12:21.925Z,4.53
2023-06-02T14:14:48.567Z,5.40
2023-06-02T14:17:15.168Z,5.03
2023-06-02T14:19:41.745Z,5.38
2023-06-02T14:22:08.655Z,5.32
2023-06-02T14:24:35.440Z,5.22
2023-06-02T14:27:02.148Z,5.10
2023-06-02T14:29:28.735Z,4.88
2023-06-02T14:31:55.951Z,4.57
2023-06-02T14:34:22.771Z,4.32
2023-06-02T14:36:49.438Z,4.60
2023-06-02T14:39:16.118Z,6.67
2023-06-02T14:41:43.943Z,4.60
2023-06-02T14:44:10.567Z,4.28
2023-06-02T14:46:37.325Z,4.20
2023-06-02T14:49:03.894Z,4.43
2023-06-02T14:51:30.840Z,4.23
2023-06-02T14:53:58.309Z,4.03
2023-06-02T14:56:25.726Z,4.40
2023-06-02T14:59:06.570Z,4.07
2023-06-02T15:01:37.429Z,3.97
2023-06-02T15:04:04.980Z,4.50
2023-06-02T15:06:32.502Z,5.00
2023-06-02T15:08:59.753Z,4.88
2023-06-02T15:11:28.094Z,4.93
2023-06-02T15:13:55.190Z,4.72
2023-06-02T15:16:21.972Z,4.13
2023-06-02T15:18:53.970Z,4.50
2023-06-02T15:21:22.249Z,4.32
2023-06-02T15:23:49.057Z,3.67
2023-06-02T15:26:16.189Z,4.30
2023-06-02T15:28:43.857Z,4.13
2023-06-02T15:31:10.819Z,4.20
2023-06-02T15:33:37.434Z,3.83
2023-06-02T15:36:04.478Z,4.07
2023-06-02T15:38:31.308Z,4.55
2023-06-02T15:40:58.058Z,4.30
2023-06-02T15:43:24.670Z,4.40
2023-06-02T15:45:51.310Z,4.10
2023-06-02T15:48:17.967Z,4.60
2023-06-02T15:50:44.568Z,5.07
2023-06-02T15:53:11.116Z,5.13
2023-06-02T15:55:37.663Z,4.80
2023-06-02T15:58:04.380Z,4.25
2023-06-02T16:00:30.942Z,4.43
2023-06-02T16:02:57.569Z,4.45
2023-06-02T16:05:24.863Z,5.10
2023-06-02T16:07:51.497Z,4.57
2023-06-02T16:10:18.118Z,5.22
2023-06-02T16:12:48.927Z,4.95
2023-06-02T16:15:16.865Z,5.63
2023-06-02T16:17:43.575Z,4.80
2023-06-02T16:20:10.939Z,5.20
2023-06-02T16:22:37.991Z,5.43
2023-06-02T16:25:05.436Z,4.55
2023-06-02T16:27:32.456Z,4.97
2023-06-02T16:29:59.109Z,6.33
2023-06-02T16:32:26.071Z,4.95
2023-06-02T16:34:52.935Z,5.28
2023-06-02T16:37:19.866Z,5.40
2023-06-02T16:39:47.319Z,5.00
2023-06-02T16:42:15.363Z,5.20
2023-06-02T16:44:42.151Z,5.10
2023-06-02T16:47:09.279Z,5.22
2023-06-02T16:49:35.946Z,5.60
2023-06-02T16:52:07.463Z,4.90
2023-06-02T16:54:35.847Z,5.33
2023-06-02T16:57:02.406Z,5.18
2023-06-02T16:59:29.264Z,3.92
2023-06-02T17:01:56.053Z,3.45
2023-06-02T17:04:22.738Z,3.90
2023-06-02T17:06:49.497Z,3.67
2023-06-02T17:09:17.410Z,3.90
2023-06-02T17:11:45.080Z,3.65
2023-06-02T17:14:11.714Z,4.03
2023-06-02T17:16:38.335Z,4.55
2023-06-02T17:19:05.302Z,3.67
2023-06-02T17:21:32.082Z,3.88
2023-06-02T17:23:58.991Z,3.58
2023-06-02T17:26:26.411Z,3.10
2023-06-02T17:28:53.035Z,2.50
2023-06-02T17:31:19.621Z,2.17
2023-06-02T17:33:46.262Z,1.73
2023-06-02T17:36:13.647Z,2.30
2023-06-02T17:38:40.278Z,1.88
2023-06-02T17:41:07.995Z,2.00
2023-06-02T17:43:34.760Z,2.40
2023-06-02T17:46:01.359Z,2.42
2023-06-02T17:48:27.943Z,1.90
2023-06-02T17:50:54.556Z,1.98
2023-06-02T17:53:21.111Z,1.95
2023-06-02T17:55:48.215Z,2.10
2023-06-02T17:58:15.877Z,2.00
2023-06-02T18:00:42.563Z,2.72
2023-06-02T18:03:09.392Z,2.92
2023-06-02T18:05:36.108Z,2.00
2023-06-02T18:08:03.793Z,2.10
2023-06-02T18:10:30.398Z,1.80
2023-06-02T18:12:59.377Z,3.83
2023-06-02T18:15:26.819Z,2.92
2023-06-02T18:17:54.166Z,2.28
2023-06-02T18:20:21.027Z,1.70
2023-06-02T18:22:47.775Z,2.47
2023-06-02T18:25:16.007Z,2.55
2023-06-02T18:27:43.108Z,1.83
2023-06-02T18:30:10.162Z,1.90
2023-06-02T18:32:37.117Z,1.80
2023-06-02T18:35:04.025Z,2.90
2023-06-02T18:37:30.707Z,2.10
2023-06-02T18:39:57.274Z,2.10
2023-06-02T18:42:23.928Z,2.38
2023-06-02T18:44:50.565Z,2.70
2023-06-02T18:47:17.283Z,2.67
2023-06-02T18:49:43.983Z,2.30
2023-06-02T18:52:10.680Z,2.25
2023-06-02T18:54:37.321Z,2.50
2023-06-02T18:57:04.622Z,2.87
2023-06-02T18:59:31.183Z,2.65
2023-06-02T19:01:57.855Z,2.65
2023-06-02T19:04:25.017Z,4.20
2023-06-02T19:06:51.553Z,2.80
2023-06-02T19:09:18.150Z,2.50
2023-06-02T19:11:46.406Z,2.97
2023-06-02T19:14:13.044Z,3.70
2023-06-02T19:16:39.652Z,3.75
2023-06-02T19:19:22.232Z,2.92
2023-06-02T19:24:22.972Z,3.43
2023-06-02T19:26:49.976Z,7.90
2023-06-02T19:29:17.743Z,4.00
2023-06-02T19:31:44.945Z,3.60
2023-06-02T19:34:11.661Z,3.75
2023-06-02T19:36:41.210Z,3.87
2023-06-02T19:39:09.472Z,4.82
2023-06-02T19:41:36.185Z,4.65
2023-06-02T19:44:03.024Z,4.05
2023-06-02T19:46:29.820Z,6.43
2023-06-02T19:48:57.402Z,4.50
2023-06-02T19:51:24.123Z,4.68
2023-06-02T19:53:50.915Z,4.95
2023-06-02T19:56:17.835Z,4.63
2023-06-02T19:58:44.529Z,5.50
2023-06-02T20:01:11.297Z,4.93
2023-06-02T20:03:38.082Z,4.40
2023-06-02T20:06:08.658Z,4.72
2023-06-02T20:08:35.828Z,5.15
2023-06-02T20:11:03.773Z,5.40
2023-06-02T20:13:30.823Z,7.60
2023-06-02T20:15:57.649Z,5.68
2023-06-02T20:18:24.296Z,5.40
2023-06-02T20:20:51.269Z,5.65
2023-06-02T20:23:17.916Z,5.65
2023-06-02T20:25:44.624Z,6.10
2023-06-02T20:28:11.246Z,5.63
2023-06-02T20:30:38.070Z,6.68
2023-06-02T20:33:04.774Z,10.70
2023-06-02T20:35:31.730Z,5.95
2023-06-02T20:37:58.495Z,6.07
2023-06-02T20:40:25.232Z,6.20
2023-06-02T20:42:51.817Z,6.43
2023-06-02T20:45:21.876Z,6.25
2023-06-02T20:47:49.199Z,6.50
2023-06-02T20:50:16.214Z,7.07
2023-06-02T20:52:42.909Z,8.02
2023-06-02T20:55:09.805Z,6.90
2023-06-02T20:57:36.478Z,6.43
2023-06-02T21:00:06.079Z,6.32
2023-06-02T21:02:34.079Z,6.30
2023-06-02T21:05:00.949Z,8.25
2023-06-02T21:07:29.392Z,6.55
2023-06-02T21:09:56.436Z,7.10
2023-06-02T21:12:23.028Z,7.13
2023-06-02T21:14:49.662Z,6.60
2023-06-02T21:17:16.331Z,7.68
2023-06-02T21:19:43.043Z,6.72
2023-06-02T21:22:09.650Z,6.60
2023-06-02T21:24:36.217Z,6.90
2023-06-02T21:27:02.802Z,6.30
2023-06-02T21:29:29.439Z,6.50
2023-06-02T21:31:58.379Z,7.03
2023-06-02T21:34:24.993Z,7.10
2023-06-02T21:36:51.578Z,6.53
2023-06-02T21:39:18.173Z,6.20
2023-06-02T21:41:44.783Z,7.00
2023-06-02T21:44:11.413Z,7.70
2023-06-02T21:46:38.090Z,6.85
2023-06-02T21:49:04.941Z,6.30
2023-06-02T21:51:32.903Z,5.77
2023-06-02T21:54:00.535Z,6.80
2023-06-02T21:56:27.851Z,6.60
2023-06-02T21:58:54.842Z,5.90
2023-06-02T22:01:21.937Z,5.97
2023-06-02T22:03:48.959Z,5.67
2023-06-02T22:06:15.734Z,6.22
2023-06-02T22:08:43.756Z,6.10
2023-06-02T22:11:10.581Z,5.90
2023-06-02T22:13:37.321Z,5.82
2023-06-02T22:16:04.538Z,6.23
2023-06-02T22:18:31.148Z,6.03
2023-06-02T22:20:57.741Z,5.63
2023-06-02T22:23:24.582Z,5.65
2023-06-02T22:25:51.290Z,5.70
2023-06-02T22:28:18.078Z,5.30
2023-06-02T22:30:44.758Z,5.35
2023-06-02T22:33:11.345Z,5.43
2023-06-02T22:35:38.008Z,5.63
2023-06-02T22:38:04.599Z,5.72
2023-06-02T22:40:31.169Z,4.97
2023-06-02T22:42:57.747Z,5.30
2023-06-02T22:45:24.370Z,5.68
2023-06-02T22:47:51.120Z,5.07
2023-06-02T22:50:17.804Z,5.45
2023-06-02T22:52:44.430Z,5.20
2023-06-02T22:55:11.051Z,5.00
2023-06-02T22:57:37.706Z,5.43
2023-06-02T23:00:04.728Z,5.60
2023-06-02T23:02:32.038Z,5.00
2023-06-02T23:04:58.651Z,5.33
2023-06-02T23:07:25.225Z,5.20
2023-06-02T23:09:51.773Z,5.60
2023-06-02T23:12:18.721Z,5.30
2023-06-02T23:14:48.326Z,5.45
2023-06-02T23:17:15.128Z,5.27
2023-06-02T23:19:41.887Z,5.15
2023-06-02T23:22:08.557Z,5.22
2023-06-02T23:24:35.150Z,5.05
2023-06-02T23:27:01.811Z,4.75
2023-06-02T23:29:28.404Z,4.80
2023-06-02T23:31:55.012Z,5.05
2023-06-02T23:34:21.785Z,4.65
2023-06-02T23:36:48.379Z,5.05
2023-06-02T23:39:15.023Z,4.82
2023-06-02T23:41:41.672Z,4.47
2023-06-02T23:44:08.399Z,5.10
2023-06-02T23:46:35.026Z,4.85
2023-06-02T23:49:02.292Z,4.60
2023-06-02T23:51:28.893Z,4.97
2023-06-02T23:53:55.624Z,4.80
2023-06-02T23:56:22.264Z,5.07
2023-06-02T23:58:48.942Z,5.20
